Burton City, Ohio
Current Conditions -  °F | °C
As of 2:56 AM on Friday 24 Oct 2014 (Local Time) from KBJJ Reporting Station
Clear Clear  
Wind Chill: 34°   Ceiling: Unl
Heat Index: 34°   Visibility: 7mi
Dew Point: 31°   Wind: 0mph
Humidity: 89%   Direction: NA
Pressure: 30.1"   Gusts: NA
Location:  40.8369°N, 81.7632°W
Report Text: KBJJ 240656Z AUTO 00000KT 7SM CLR 01/M01 A3010 RMK AO2 SLP198 I1000 T00111006 TSNO
Loading
Personal Weather Stations






























Interactive Weather Map New forecast layout! Learn more

10-Day Weather Forecast

Advertisements
Track Severe Weather on mobile